Time;durP1;ratioP1;P1;durP2;ratioP2;P2;SDS_P1;SDS_P2;PMS_P1;PMS_P2;Temp;Humidity;BMP_temperature;BMP_pressure;BME280_temperature;BME280_humidity;BME280_pressure;Samples;Min_cycle;Max_cycle;Signal;HPM_P1;HPM_P2
2022/02/20 00:01:25;;;;;;;17.83;4.95;;;8.10;58.40;;;;;;4991553;28;20077;-75
2022/02/20 00:03:52;;;;;;;14.23;4.50;;;8.00;57.60;;;;;;4996801;28;20046;-75
2022/02/20 00:06:20;;;;;;;16.10;5.05;;;8.20;57.20;;;;;;4991479;28;20046;-75
2022/02/20 00:08:47;;;;;;;7.55;3.42;;;8.40;56.80;;;;;;4990959;28;20038;-75
2022/02/20 00:11:15;;;;;;;12.57;3.38;;;8.40;56.60;;;;;;4990423;28;20038;-75
2022/02/20 00:13:42;;;;;;;16.55;3.45;;;8.50;56.60;;;;;;5007043;28;20046;-75
2022/02/20 00:16:09;;;;;;;12.18;3.90;;;8.30;57.90;;;;;;4989043;28;20967;-75
2022/02/20 00:18:36;;;;;;;7.47;2.30;;;8.40;57.60;;;;;;5005373;28;20143;-75
2022/02/20 00:21:04;;;;;;;9.52;2.78;;;8.30;57.70;;;;;;4989345;28;20038;-75
2022/02/20 00:23:31;;;;;;;6.82;2.28;;;8.30;58.10;;;;;;4989456;28;20052;-75
2022/02/20 00:25:58;;;;;;;8.88;2.20;;;8.20;57.80;;;;;;5005900;28;20143;-75
2022/02/20 00:28:25;;;;;;;7.88;2.63;;;8.00;58.10;;;;;;4987881;28;20137;-75
2022/02/20 00:30:52;;;;;;;9.65;2.30;;;8.10;58.80;;;;;;4986057;28;20595;-75
2022/02/20 00:33:21;;;;;;;11.27;2.63;;;8.00;59.10;;;;;;4988743;28;20053;-74
2022/02/20 00:35:48;;;;;;;6.40;1.90;;;8.00;59.00;;;;;;4991648;28;20042;-75
2022/02/20 00:38:15;;;;;;;8.40;2.35;;;7.90;59.40;;;;;;4973252;28;20050;-75
2022/02/20 00:40:42;;;;;;;10.48;2.53;;;7.70;60.00;;;;;;5007361;28;20057;-75
2022/02/20 00:43:10;;;;;;;10.38;3.10;;;7.80;59.80;;;;;;4993137;28;20038;-75
2022/02/20 00:45:37;;;;;;;9.40;2.47;;;7.70;60.60;;;;;;5006786;28;20081;-75
2022/02/20 00:48:04;;;;;;;7.75;2.70;;;7.90;59.60;;;;;;4976459;28;20042;-74
2022/02/20 00:50:33;;;;;;;9.77;2.85;;;7.70;59.90;;;;;;4991931;28;20164;-75
2022/02/20 00:53:01;;;;;;;8.77;2.47;;;7.70;60.30;;;;;;4989590;28;20046;-75
2022/02/20 00:55:28;;;;;;;10.48;2.63;;;7.70;60.30;;;;;;4989158;28;20050;-75
2022/02/20 00:57:55;;;;;;;9.25;2.35;;;7.60;60.30;;;;;;4989715;28;20054;-75
2022/02/20 01:00:22;;;;;;;8.48;2.20;;;7.50;61.20;;;;;;4977578;28;20049;-75
2022/02/20 01:02:50;;;;;;;7.43;2.13;;;7.40;60.60;;;;;;4990043;28;20042;-75
2022/02/20 01:05:17;;;;;;;9.55;2.33;;;7.40;61.50;;;;;;4990039;28;20775;-75
2022/02/20 01:07:45;;;;;;;7.00;2.17;;;7.40;62.00;;;;;;5006536;28;20053;-75
2022/02/20 01:10:15;;;;;;;6.68;2.38;;;7.40;61.50;;;;;;4992904;28;20104;-75
2022/02/20 01:12:42;;;;;;;8.35;2.55;;;7.30;61.40;;;;;;4990323;28;20456;-74
2022/02/20 01:15:11;;;;;;;4.65;1.77;;;7.40;61.20;;;;;;4992604;28;20107;-75
2022/02/20 01:17:38;;;;;;;5.88;2.45;;;7.40;61.30;;;;;;4990937;28;20053;-75
2022/02/20 01:20:09;;;;;;;9.70;2.30;;;7.30;61.80;;;;;;4991990;28;20046;-75
2022/02/20 01:22:37;;;;;;;7.10;2.20;;;7.30;61.50;;;;;;4992823;28;20049;-75
2022/02/20 01:25:05;;;;;;;7.68;2.28;;;7.30;61.70;;;;;;4990728;28;20046;-75
2022/02/20 01:27:32;;;;;;;4.85;1.85;;;7.30;61.80;;;;;;4991050;28;20112;-75
2022/02/20 01:29:59;;;;;;;6.65;2.20;;;7.30;61.90;;;;;;4993030;28;20062;-75
2022/02/20 01:32:27;;;;;;;9.00;2.75;;;7.20;62.30;;;;;;4980107;28;20524;-75
2022/02/20 01:34:54;;;;;;;4.07;1.95;;;7.10;62.50;;;;;;4979004;28;20054;-75
2022/02/20 01:37:21;;;;;;;8.63;2.13;;;7.10;62.70;;;;;;4978793;28;20124;-75
2022/02/20 01:39:49;;;;;;;6.68;2.40;;;7.10;62.90;;;;;;4994243;28;20633;-75
2022/02/20 01:42:21;;;;;;;6.83;2.20;;;7.10;62.90;;;;;;5010713;28;20049;-75
2022/02/20 01:44:48;;;;;;;6.72;2.50;;;7.20;62.90;;;;;;4994410;28;20046;-75
2022/02/20 01:47:16;;;;;;;7.57;2.40;;;7.20;62.60;;;;;;4977924;28;20095;-75
2022/02/20 01:49:44;;;;;;;9.35;2.90;;;7.10;63.20;;;;;;4995601;28;20053;-75
2022/02/20 01:52:12;;;;;;;9.40;2.85;;;7.00;63.70;;;;;;5009549;28;20560;-75
2022/02/20 01:54:39;;;;;;;9.30;2.67;;;7.20;63.60;;;;;;4992281;28;20095;-75
2022/02/20 01:57:08;;;;;;;9.50;2.75;;;7.20;63.70;;;;;;4996247;28;20119;-75
2022/02/20 02:00:16;;;;;;;11.85;3.50;;;7.10;63.90;;;;;;4992061;28;21139;-75
2022/02/20 02:02:45;;;;;;;12.93;3.45;;;6.60;66.20;;;;;;4979481;28;20748;-75
2022/02/20 02:05:39;;;;;;;13.50;3.50;;;6.40;68.20;;;;;;4965963;28;20130;-75
2022/02/20 02:08:06;;;;;;;14.95;3.38;;;6.50;67.80;;;;;;4996478;28;20073;-75
2022/02/20 02:11:04;;;;;;;11.15;3.45;;;6.90;66.50;;;;;;4979071;28;20049;-75
2022/02/20 02:13:43;;;;;;;7.22;2.85;;;7.20;66.20;;;;;;5008473;28;20060;-75
2022/02/20 02:16:29;;;;;;;8.48;2.58;;;6.80;67.60;;;;;;4994060;28;20107;-75
2022/02/20 02:19:15;;;;;;;9.13;2.55;;;6.30;69.40;;;;;;4994642;28;21361;-75
2022/02/20 02:21:58;;;;;;;7.63;2.58;;;6.20;69.00;;;;;;5011181;28;20560;-75
2022/02/20 02:24:53;;;;;;;7.20;2.35;;;6.30;68.30;;;;;;4956751;28;20054;-75
2022/02/20 02:27:31;;;;;;;7.15;2.03;;;6.40;66.70;;;;;;4980571;28;20064;-75
2022/02/20 02:30:10;;;;;;;6.38;2.00;;;6.10;67.90;;;;;;4994122;28;20060;-75
2022/02/20 02:32:37;;;;;;;8.68;2.20;;;5.90;68.80;;;;;;4993033;28;20111;-75
2022/02/20 02:35:05;;;;;;;6.97;1.88;;;5.80;69.40;;;;;;4995092;28;20046;-75
2022/02/20 02:37:32;;;;;;;5.00;1.80;;;5.90;69.30;;;;;;4993548;28;20050;-75
2022/02/20 02:39:59;;;;;;;6.43;2.47;;;6.10;68.70;;;;;;4989773;28;20659;-75
2022/02/20 02:42:26;;;;;;;7.45;2.33;;;6.30;67.70;;;;;;4974486;28;20046;-74
2022/02/20 02:44:53;;;;;;;9.57;2.90;;;6.70;66.60;;;;;;4982227;28;20054;-74
2022/02/20 02:47:21;;;;;;;8.55;3.33;;;6.90;65.40;;;;;;5010362;28;20452;-75
2022/02/20 02:49:49;;;;;;;7.05;2.78;;;6.90;65.70;;;;;;4993854;28;20045;-74
2022/02/20 02:52:16;;;;;;;8.55;2.85;;;7.00;64.70;;;;;;4991950;28;20569;-75
2022/02/20 02:54:43;;;;;;;8.80;3.10;;;7.10;65.50;;;;;;4994683;28;20129;-75
2022/02/20 02:57:12;;;;;;;10.77;3.65;;;7.00;64.70;;;;;;4990963;28;20548;-75
2022/02/20 02:59:39;;;;;;;14.88;3.58;;;6.90;64.90;;;;;;4989216;28;20766;-75
2022/02/20 03:02:07;;;;;;;11.35;3.85;;;7.00;65.50;;;;;;4992971;28;20043;-75
2022/02/20 03:04:34;;;;;;;10.27;3.17;;;7.00;65.30;;;;;;4975691;28;20056;-75
2022/02/20 03:07:03;;;;;;;11.52;3.47;;;6.90;66.00;;;;;;4993851;28;20040;-75
2022/02/20 03:09:30;;;;;;;9.40;3.40;;;6.90;65.60;;;;;;4991946;28;20046;-75
2022/02/20 03:11:57;;;;;;;8.70;3.30;;;6.90;65.70;;;;;;4993181;28;20105;-75
2022/02/20 03:14:26;;;;;;;12.90;3.63;;;6.90;65.60;;;;;;4993082;28;20113;-75
2022/02/20 03:16:56;;;;;;;11.85;3.38;;;6.80;65.70;;;;;;4994267;28;20038;-75
2022/02/20 03:19:24;;;;;;;9.35;2.83;;;6.60;66.70;;;;;;4992428;28;20504;-75
2022/02/20 03:21:51;;;;;;;8.45;3.15;;;6.50;66.90;;;;;;4992134;28;20049;-74
2022/02/20 03:24:20;;;;;;;10.30;2.88;;;6.50;66.90;;;;;;4991662;28;20046;-75
2022/02/20 03:26:50;;;;;;;7.82;3.25;;;6.50;67.00;;;;;;4992815;28;20505;-75
2022/02/20 03:29:23;;;;;;;9.30;3.35;;;6.40;66.70;;;;;;4994357;28;20134;-75
2022/02/20 03:31:50;;;;;;;11.52;2.92;;;6.70;66.60;;;;;;4989716;28;20533;-75
2022/02/20 03:34:17;;;;;;;9.82;3.10;;;6.90;65.50;;;;;;4989318;28;20104;-75
2022/02/20 03:36:50;;;;;;;8.75;3.05;;;6.70;65.40;;;;;;4991994;28;20041;-75
2022/02/20 03:39:26;;;;;;;8.30;2.92;;;7.00;65.10;;;;;;4979888;28;21267;-74
2022/02/20 03:41:53;;;;;;;9.05;2.80;;;6.90;64.60;;;;;;4996719;28;20046;-75
2022/02/20 03:44:38;;;;;;;9.43;2.80;;;6.30;66.40;;;;;;4993948;28;20856;-76
2022/02/20 03:47:14;;;;;;;8.93;3.58;;;6.20;67.70;;;;;;4976471;28;20057;-75
2022/02/20 03:49:41;;;;;;;9.63;3.53;;;6.40;66.70;;;;;;4989233;28;20045;-75
2022/02/20 03:52:22;;;;;;;13.40;4.47;;;6.40;66.60;;;;;;4974981;28;20046;-74
2022/02/20 03:54:50;;;;;;;10.82;3.90;;;6.40;66.70;;;;;;4980555;28;20068;-75
2022/02/20 03:57:18;;;;;;;12.48;5.07;;;6.40;66.40;;;;;;4940308;28;20067;-75
2022/02/20 04:00:28;;;;;;;10.82;3.67;;;6.00;67.20;;;;;;4951206;28;20132;-75
2022/02/20 04:03:06;;;;;;;11.35;3.88;;;5.70;68.90;;;;;;4960011;28;20042;-75
2022/02/20 04:05:34;;;;;;;10.88;3.33;;;5.80;68.50;;;;;;4941747;28;20646;-75
2022/02/20 04:08:02;;;;;;;8.75;3.38;;;6.00;68.00;;;;;;4955787;28;20108;-75
2022/02/20 04:10:29;;;;;;;9.57;3.42;;;6.00;68.30;;;;;;4940603;28;20112;-75
2022/02/20 04:12:59;;;;;;;10.38;3.58;;;6.30;67.30;;;;;;4977842;28;20144;-75
2022/02/20 04:15:34;;;;;;;8.95;3.33;;;6.50;67.00;;;;;;4959160;28;20054;-75
2022/02/20 04:18:09;;;;;;;14.32;3.72;;;6.70;66.90;;;;;;4958617;28;20615;-75
2022/02/20 04:20:36;;;;;;;11.20;3.33;;;6.70;66.30;;;;;;4958765;28;20644;-75
2022/02/20 04:23:03;;;;;;;11.07;3.40;;;6.50;67.00;;;;;;4958625;28;20557;-75
2022/02/20 04:25:34;;;;;;;11.45;3.75;;;6.60;66.20;;;;;;4983758;28;20514;-75
2022/02/20 04:28:05;;;;;;;8.95;3.60;;;6.70;66.70;;;;;;4992285;28;20035;-75
2022/02/20 04:30:33;;;;;;;12.02;3.55;;;6.80;65.80;;;;;;5011743;28;20061;-75
2022/02/20 04:33:05;;;;;;;10.00;2.85;;;6.60;66.20;;;;;;4991416;28;20060;-75
2022/02/20 04:35:32;;;;;;;12.57;3.22;;;6.60;66.50;;;;;;5007444;28;20051;-75
2022/02/20 04:37:59;;;;;;;9.77;4.15;;;6.40;67.40;;;;;;4974516;28;20616;-75
2022/02/20 04:40:28;;;;;;;9.73;3.53;;;6.50;67.00;;;;;;4988350;28;20120;-74
2022/02/20 04:43:01;;;;;;;12.63;3.50;;;6.60;66.80;;;;;;5000573;28;22100;-75
2022/02/20 04:45:28;;;;;;;9.88;3.72;;;6.60;66.60;;;;;;4990282;28;20124;-75
2022/02/20 04:47:56;;;;;;;10.77;3.67;;;6.60;66.10;;;;;;4992572;28;20050;-75
2022/02/20 04:50:23;;;;;;;11.45;3.60;;;6.30;67.90;;;;;;4993482;28;20065;-75
2022/02/20 04:53:03;;;;;;;12.52;4.35;;;6.30;67.00;;;;;;4995478;28;20133;-75
2022/02/20 04:55:36;;;;;;;10.07;3.58;;;6.20;68.00;;;;;;4990748;28;20524;-75
2022/02/20 04:58:03;;;;;;;10.38;3.80;;;6.10;67.60;;;;;;5005454;28;20060;-75
2022/02/20 05:00:30;;;;;;;10.13;3.85;;;6.20;67.40;;;;;;4974882;28;20042;-75
2022/02/20 05:03:01;;;;;;;9.27;3.10;;;6.10;67.40;;;;;;4995060;28;20057;-75
2022/02/20 05:05:52;;;;;;;7.70;3.67;;;6.00;67.40;;;;;;4987180;28;20053;-75
2022/02/20 05:08:26;;;;;;;13.38;3.33;;;6.20;67.00;;;;;;4996585;28;20041;-75
2022/02/20 05:10:54;;;;;;;13.63;5.15;;;6.20;67.20;;;;;;4996612;28;20085;-75
2022/02/20 05:13:22;;;;;;;17.23;6.25;;;6.00;66.90;;;;;;5011975;28;20050;-75
2022/02/20 05:15:49;;;;;;;19.52;7.07;;;6.10;67.50;;;;;;4996881;28;20136;-75
2022/02/20 05:18:18;;;;;;;15.15;6.13;;;6.00;67.40;;;;;;4994724;28;20042;-75
2022/02/20 05:20:54;;;;;;;14.98;5.97;;;5.80;68.40;;;;;;4994370;28;20069;-74
2022/02/20 05:23:23;;;;;;;18.90;6.82;;;5.50;70.00;;;;;;5012530;28;20133;-75
2022/02/20 05:25:51;;;;;;;18.65;8.02;;;5.50;69.90;;;;;;4997203;28;20037;-75
2022/02/20 05:28:18;;;;;;;20.77;7.07;;;5.60;68.80;;;;;;4997189;28;20046;-75
2022/02/20 05:30:48;;;;;;;19.52;6.88;;;5.80;68.20;;;;;;4995299;28;20083;-75
2022/02/20 05:33:19;;;;;;;21.02;6.78;;;5.80;68.00;;;;;;4994177;28;20060;-75
2022/02/20 05:35:47;;;;;;;17.40;6.97;;;5.90;67.80;;;;;;4995187;28;20080;-75
2022/02/20 05:38:17;;;;;;;15.48;6.15;;;5.90;67.40;;;;;;4996180;28;20706;-75
2022/02/20 05:40:44;;;;;;;16.55;6.47;;;5.80;67.50;;;;;;4994498;28;20177;-74
2022/02/20 05:43:13;;;;;;;14.80;5.18;;;5.80;67.80;;;;;;4978000;28;20608;-75
2022/02/20 05:45:43;;;;;;;14.70;6.65;;;5.80;67.80;;;;;;5009884;28;20074;-75
2022/02/20 05:48:17;;;;;;;13.20;5.97;;;5.80;67.60;;;;;;4994134;28;20108;-75
2022/02/20 05:51:07;;;;;;;18.05;6.75;;;5.80;67.90;;;;;;5006591;28;20192;-75
2022/02/20 05:53:40;;;;;;;15.38;6.68;;;5.50;68.40;;;;;;4994042;28;20046;-75
2022/02/20 05:56:08;;;;;;;16.85;5.97;;;5.70;68.50;;;;;;4977894;28;20046;-75
2022/02/20 05:58:52;;;;;;;20.52;7.35;;;5.80;68.50;;;;;;4978466;28;20237;-75
2022/02/20 06:01:20;;;;;;;11.73;4.90;;;5.30;69.90;;;;;;4978745;28;20461;-75
2022/02/20 06:03:53;;;;;;;;;;;4.90;72.10;;;;;;4995246;28;20382;-75
2022/02/20 06:06:40;;;;;;;9.25;3.92;;;4.60;73.70;;;;;;4974192;28;20055;-74
2022/02/20 06:09:30;;;;;;;10.98;4.53;;;4.40;74.30;;;;;;4994634;28;20042;-74
2022/02/20 06:12:11;;;;;;;13.80;4.45;;;4.40;74.50;;;;;;4994281;28;20907;-75
2022/02/20 06:14:58;;;;;;;7.85;4.20;;;4.30;75.20;;;;;;4980179;28;20424;-74
2022/02/20 06:17:45;;;;;;;13.77;3.97;;;4.10;77.20;;;;;;4999561;28;20603;-74
2022/02/20 06:20:32;;;;;;;11.02;3.58;;;4.00;78.60;;;;;;4995383;28;20052;-75
2022/02/20 06:23:17;;;;;;;9.63;3.20;;;3.80;79.80;;;;;;4994017;28;20192;-75
2022/02/20 06:26:01;;;;;;;;;;;3.90;80.60;;;;;;4994110;28;20046;-75
2022/02/20 06:28:30;;;;;;;7.70;2.40;;;4.10;80.80;;;;;;4996747;28;19930;-75
2022/02/20 06:30:59;;;;;;;11.45;3.40;;;4.20;81.20;;;;;;4996006;28;20045;-74
2022/02/20 06:33:28;;;;;;;9.02;2.72;;;4.20;81.70;;;;;;4978369;28;20505;-74
2022/02/20 06:36:00;;;;;;;9.85;3.17;;;4.20;82.30;;;;;;4994995;28;20049;-74
2022/02/20 06:38:28;;;;;;;11.30;3.28;;;4.40;82.40;;;;;;4994535;28;20054;-75
2022/02/20 06:40:55;;;;;;;9.40;3.58;;;4.60;82.20;;;;;;4977172;28;20139;-75
2022/02/20 06:43:32;;;;;;;13.85;4.50;;;4.90;81.80;;;;;;4993357;28;20249;-75
2022/02/20 06:46:21;;;;;;;20.23;5.53;;;5.20;81.70;;;;;;4959169;28;20055;-75
2022/02/20 06:49:01;;;;;;;15.68;5.05;;;5.40;81.20;;;;;;4994433;28;20042;-75
2022/02/20 06:51:46;;;;;;;12.48;4.72;;;5.60;81.10;;;;;;4993675;28;20050;-74
2022/02/20 06:54:32;;;;;;;9.77;4.32;;;5.60;81.80;;;;;;4992038;28;20046;-75
2022/02/20 06:57:06;;;;;;;9.45;3.50;;;5.70;82.50;;;;;;4980539;28;20081;-75
2022/02/20 06:59:33;;;;;;;7.07;2.58;;;5.90;80.70;;;;;;4996149;28;20072;-75
2022/02/20 07:02:00;;;;;;;7.35;2.80;;;6.20;82.20;;;;;;5005897;28;20071;-75
2022/02/20 07:04:29;;;;;;;10.57;2.85;;;6.10;83.60;;;;;;4992976;28;20807;-75
2022/02/20 07:06:56;;;;;;;10.35;3.63;;;6.10;84.70;;;;;;4992354;28;20996;-75
2022/02/20 07:09:23;;;;;;;8.18;2.47;;;6.10;85.70;;;;;;4993294;28;20050;-75
2022/02/20 07:11:50;;;;;;;9.65;3.45;;;5.90;87.40;;;;;;5002350;28;20494;-76
2022/02/20 07:14:17;;;;;;;10.40;3.15;;;5.90;87.90;;;;;;4990536;28;20080;-75
2022/02/20 07:16:44;;;;;;;7.88;2.90;;;6.00;87.80;;;;;;4993676;28;20045;-75
2022/02/20 07:19:11;;;;;;;5.30;2.13;;;6.30;87.30;;;;;;4994820;28;20045;-75
2022/02/20 07:21:38;;;;;;;5.68;1.90;;;6.20;89.70;;;;;;4993980;28;20544;-75
2022/02/20 07:24:06;;;;;;;6.72;2.50;;;6.40;89.50;;;;;;4977149;28;20048;-75
2022/02/20 07:26:33;;;;;;;5.15;2.25;;;6.60;89.10;;;;;;4993030;28;20125;-75
2022/02/20 07:29:00;;;;;;;8.65;2.28;;;6.80;88.20;;;;;;5010492;28;20660;-75
2022/02/20 07:31:28;;;;;;;5.85;2.38;;;6.70;89.10;;;;;;4993623;28;20057;-74
2022/02/20 07:33:57;;;;;;;6.03;2.45;;;6.70;90.10;;;;;;4994263;28;20520;-74
2022/02/20 07:36:24;;;;;;;7.28;1.98;;;7.00;89.50;;;;;;4991569;28;20057;-75
2022/02/20 07:38:51;;;;;;;5.25;2.15;;;7.30;89.00;;;;;;4993021;28;20130;-74
2022/02/20 07:41:18;;;;;;;10.05;4.32;;;7.50;88.30;;;;;;4992318;28;20069;-74
2022/02/20 07:43:48;;;;;;;8.68;3.30;;;7.50;87.60;;;;;;4994358;28;20034;-74
2022/02/20 07:46:21;;;;;;;5.70;2.10;;;7.40;88.20;;;;;;4995519;28;20820;-74
2022/02/20 07:48:48;;;;;;;7.03;1.83;;;7.20;89.70;;;;;;4994556;28;20050;-74
2022/02/20 07:51:15;;;;;;;9.70;3.38;;;7.30;90.40;;;;;;4990607;28;20515;-74
2022/02/20 07:53:43;;;;;;;9.75;4.45;;;7.30;90.50;;;;;;5009572;28;20152;-74
2022/02/20 07:56:12;;;;;;;7.32;3.15;;;7.70;89.70;;;;;;4992761;28;20141;-74
2022/02/20 07:58:39;;;;;;;5.68;1.80;;;7.80;89.40;;;;;;4994175;28;20037;-74
2022/02/20 08:01:06;;;;;;;4.85;2.55;;;7.80;89.40;;;;;;5007605;28;20060;-74
2022/02/20 08:03:35;;;;;;;6.32;3.05;;;7.90;88.50;;;;;;4993009;28;20524;-74
2022/02/20 08:06:03;;;;;;;11.27;4.05;;;8.30;86.80;;;;;;4993512;28;20053;-73
2022/02/20 08:08:34;;;;;;;10.93;4.75;;;8.00;86.60;;;;;;4990873;28;20116;-73
2022/02/20 08:11:02;;;;;;;22.92;10.80;;;8.10;87.20;;;;;;4994306;28;20046;-73
2022/02/20 08:13:29;;;;;;;38.42;16.17;;;8.00;87.40;;;;;;4992441;28;20038;-73
2022/02/20 08:15:57;;;;;;;8.48;3.47;;;8.00;87.00;;;;;;4992500;28;20045;-73
2022/02/20 08:18:25;;;;;;;13.68;7.10;;;8.10;87.40;;;;;;4992864;28;20472;-72
2022/02/20 08:20:52;;;;;;;4.05;1.17;;;8.30;85.80;;;;;;4992539;28;20100;-72
2022/02/20 08:23:39;;;;;;;6.70;1.65;;;8.50;85.00;;;;;;4989727;28;21034;-73
2022/02/20 08:26:07;;;;;;;4.22;1.33;;;8.50;84.60;;;;;;4994004;28;20069;-72
2022/02/20 08:28:34;;;;;;;3.58;1.23;;;8.60;84.70;;;;;;5006053;28;20042;-73
2022/02/20 08:31:01;;;;;;;4.22;1.50;;;8.90;83.20;;;;;;4992109;28;20494;-74
2022/02/20 08:33:28;;;;;;;3.00;1.10;;;9.10;82.10;;;;;;4990541;28;20065;-73
2022/02/20 08:36:14;;;;;;;0.93;0.50;;;8.90;82.10;;;;;;4991851;28;20825;-75
2022/02/20 08:38:41;;;;;;;2.10;0.63;;;8.30;83.30;;;;;;5010009;28;20550;-74
2022/02/20 08:41:08;;;;;;;4.30;1.10;;;8.30;84.40;;;;;;4997514;28;20045;-74
2022/02/20 08:43:35;;;;;;;3.33;0.80;;;8.30;84.30;;;;;;4997021;28;20670;-74
2022/02/20 08:46:03;;;;;;;2.42;0.70;;;8.20;85.00;;;;;;5000188;28;20062;-74
2022/02/20 08:48:35;;;;;;;2.97;0.70;;;8.30;85.10;;;;;;4999432;28;20613;-75
2022/02/20 08:51:04;;;;;;;3.50;1.63;;;8.30;85.50;;;;;;4998853;28;20065;-75
2022/02/20 08:53:31;;;;;;;2.92;0.60;;;8.40;85.60;;;;;;4999400;28;20124;-77
2022/02/20 08:55:58;;;;;;;1.08;0.30;;;8.10;85.60;;;;;;4996839;28;20053;-76
2022/02/20 08:58:25;;;;;;;1.13;0.45;;;8.10;86.10;;;;;;4995723;28;20378;-76
2022/02/20 09:00:55;;;;;;;3.30;0.50;;;8.20;86.80;;;;;;4982506;28;20193;-76
2022/02/20 09:03:23;;;;;;;2.47;0.32;;;8.20;85.70;;;;;;4981101;28;20056;-76
2022/02/20 09:05:50;;;;;;;3.28;0.40;;;8.20;84.80;;;;;;4998302;28;20773;-77
2022/02/20 09:08:17;;;;;;;1.30;0.30;;;8.20;84.60;;;;;;4997452;28;20038;-77
2022/02/20 09:10:45;;;;;;;1.95;0.52;;;8.40;84.50;;;;;;5012409;28;20058;-77
2022/02/20 09:13:13;;;;;;;3.25;1.00;;;8.40;84.60;;;;;;4996693;28;20065;-77
2022/02/20 09:15:40;;;;;;;6.15;1.27;;;8.60;84.80;;;;;;4996849;28;20505;-77
2022/02/20 09:18:08;;;;;;;4.90;1.33;;;8.50;84.80;;;;;;4999320;28;20550;-77
2022/02/20 09:20:35;;;;;;;3.08;0.70;;;8.50;83.80;;;;;;5011747;28;20149;-77
2022/02/20 09:23:07;;;;;;;2.60;0.77;;;8.40;82.90;;;;;;4998223;28;20137;-77
2022/02/20 09:25:34;;;;;;;1.20;0.63;;;8.40;82.70;;;;;;4997605;28;20069;-77
2022/02/20 09:28:01;;;;;;;1.90;0.40;;;8.40;82.00;;;;;;5002424;28;20042;-76
2022/02/20 09:30:28;;;;;;;1.73;0.40;;;8.40;82.60;;;;;;4996945;28;20060;-77
2022/02/20 09:32:55;;;;;;;2.22;0.40;;;8.40;81.80;;;;;;4999515;28;20439;-76
2022/02/20 09:35:24;;;;;;;1.52;0.35;;;8.60;81.80;;;;;;5000964;28;20485;-76
2022/02/20 09:37:51;;;;;;;2.65;0.40;;;8.60;80.30;;;;;;4997310;28;22105;-77
2022/02/20 09:40:18;;;;;;;4.32;1.08;;;8.80;80.40;;;;;;5014826;28;20050;-76
2022/02/20 09:42:47;;;;;;;5.93;1.23;;;9.20;79.50;;;;;;4979577;28;20058;-75
2022/02/20 09:45:14;;;;;;;4.75;0.50;;;9.50;78.50;;;;;;5000023;28;20042;-76
2022/02/20 09:47:43;;;;;;;4.45;0.70;;;9.80;76.00;;;;;;4988257;28;20049;-75
2022/02/20 09:50:10;;;;;;;3.70;0.90;;;9.80;75.70;;;;;;5006174;28;20050;-75
2022/02/20 09:52:38;;;;;;;4.35;1.00;;;9.80;75.80;;;;;;4979575;28;20050;-76
2022/02/20 09:55:06;;;;;;;4.05;1.20;;;9.60;76.40;;;;;;4996518;28;20448;-75
2022/02/20 09:57:34;;;;;;;4.38;1.23;;;9.70;76.60;;;;;;4996859;28;20053;-75
2022/02/20 10:00:02;;;;;;;4.65;1.55;;;10.00;76.10;;;;;;4989137;28;20065;-76
2022/02/20 10:02:42;;;;;;;1.73;0.55;;;10.10;74.50;;;;;;4993447;28;20509;-76
2022/02/20 10:05:18;;;;;;;2.47;0.47;;;10.00;74.20;;;;;;4993854;28;20038;-75
2022/02/20 10:07:46;;;;;;;3.10;0.98;;;9.80;73.00;;;;;;5008478;28;20068;-75
2022/02/20 10:10:16;;;;;;;4.07;0.75;;;9.80;73.30;;;;;;4980548;28;20045;-75
2022/02/20 10:12:44;;;;;;;2.15;0.65;;;9.80;73.80;;;;;;4994093;28;20077;-75
2022/02/20 10:15:30;;;;;;;3.75;0.50;;;9.70;73.50;;;;;;4976244;28;20039;-76
2022/02/20 10:18:16;;;;;;;2.20;0.57;;;9.50;73.70;;;;;;4991545;28;20049;-75
2022/02/20 10:21:05;;;;;;;2.78;1.13;;;9.50;74.50;;;;;;4996505;28;20092;-76
2022/02/20 10:23:54;;;;;;;4.30;1.00;;;9.60;74.60;;;;;;5008454;28;20164;-75
2022/02/20 10:26:25;;;;;;;3.30;0.90;;;9.70;74.80;;;;;;5010489;28;20057;-75
2022/02/20 10:29:16;;;;;;;2.78;0.80;;;9.70;74.90;;;;;;4999300;28;20720;-76
2022/02/20 10:31:47;;;;;;;4.25;1.42;;;9.60;74.90;;;;;;4994494;28;20108;-76
2022/02/20 10:34:23;;;;;;;2.92;0.70;;;9.70;75.00;;;;;;4994999;28;20049;-75
2022/02/20 10:36:56;;;;;;;1.88;0.50;;;9.50;75.10;;;;;;4975208;28;20033;-75
2022/02/20 10:39:27;;;;;;;3.50;1.02;;;9.50;75.30;;;;;;4994938;28;20045;-75
2022/02/20 10:41:55;;;;;;;2.60;0.50;;;9.50;75.40;;;;;;5009671;28;20568;-76
2022/02/20 10:44:23;;;;;;;2.40;0.43;;;9.40;75.20;;;;;;4980889;28;20097;-75
2022/02/20 10:47:14;;;;;;;1.65;0.47;;;9.40;75.80;;;;;;4996225;28;20042;-75
2022/02/20 10:49:42;;;;;;;1.42;0.47;;;9.40;76.60;;;;;;4995142;28;20046;-75
2022/02/20 10:52:28;;;;;;;1.77;0.55;;;9.50;76.60;;;;;;4995447;28;20042;-75
2022/02/20 10:55:13;;;;;;;8.15;1.40;;;9.30;76.60;;;;;;4988641;28;20069;-75
2022/02/20 10:57:49;;;;;;;3.53;0.82;;;9.50;76.40;;;;;;4994282;28;20042;-75
2022/02/20 11:00:21;;;;;;;2.55;0.40;;;9.70;76.50;;;;;;4976487;28;20092;-75
2022/02/20 11:03:06;;;;;;;2.92;0.50;;;9.70;76.20;;;;;;4996077;28;20042;-75
2022/02/20 11:05:34;;;;;;;4.15;0.60;;;9.70;76.00;;;;;;5005300;28;20109;-75
2022/02/20 11:08:03;;;;;;;2.70;0.50;;;9.80;76.10;;;;;;4994893;28;20771;-75
2022/02/20 11:10:31;;;;;;;3.60;0.70;;;9.70;75.70;;;;;;4993912;28;20038;-75
2022/02/20 11:13:01;;;;;;;7.68;2.22;;;9.70;76.00;;;;;;4978298;28;20061;-76
2022/02/20 11:15:29;;;;;;;17.13;7.00;;;9.60;76.40;;;;;;4978237;28;20131;-75
2022/02/20 11:18:00;;;;;;;12.57;7.18;;;9.60;76.80;;;;;;4995827;28;20515;-75
2022/02/20 11:20:32;;;;;;;12.02;5.03;;;9.80;76.80;;;;;;4993967;28;20497;-75
2022/02/20 11:23:04;;;;;;;5.90;4.35;;;9.90;76.30;;;;;;4990475;28;20202;-75
2022/02/20 11:25:34;;;;;;;2.10;0.75;;;9.90;75.60;;;;;;4994755;28;20047;-75
2022/02/20 11:28:03;;;;;;;2.58;1.13;;;9.90;75.80;;;;;;4993362;28;20045;-75
2022/02/20 11:30:31;;;;;;;2.63;1.05;;;9.90;76.10;;;;;;5007417;28;20061;-74
2022/02/20 11:33:02;;;;;;;4.30;1.35;;;10.00;75.60;;;;;;4991204;28;20069;-75
2022/02/20 11:35:30;;;;;;;4.65;1.80;;;10.20;74.90;;;;;;4976970;28;20054;-75
2022/02/20 11:38:04;;;;;;;1.45;0.80;;;10.30;75.30;;;;;;4993567;28;20053;-75
2022/02/20 11:41:02;;;;;;;3.20;1.35;;;10.40;75.00;;;;;;4992685;28;20042;-75
2022/02/20 11:44:09;;;;;;;3.38;0.90;;;10.40;74.80;;;;;;4970912;28;20077;-75
2022/02/20 11:47:05;;;;;;;4.10;1.67;;;10.40;74.40;;;;;;4990533;28;20046;-75
2022/02/20 11:49:32;;;;;;;2.53;0.80;;;10.30;75.00;;;;;;4958264;28;20506;-75
2022/02/20 11:52:10;;;;;;;3.38;1.45;;;10.40;74.50;;;;;;4990654;28;20042;-74
2022/02/20 11:54:39;;;;;;;5.28;1.08;;;10.30;74.50;;;;;;4988354;28;20046;-75
2022/02/20 11:57:12;;;;;;;4.05;1.10;;;10.20;74.80;;;;;;5006877;28;20899;-75
2022/02/20 11:59:41;;;;;;;5.07;2.70;;;10.30;74.50;;;;;;4992183;28;20791;-75
2022/02/20 12:02:09;;;;;;;4.15;1.27;;;10.40;74.50;;;;;;4990119;28;20046;-75
2022/02/20 12:04:52;;;;;;;12.52;3.75;;;10.70;74.00;;;;;;5003673;28;20104;-76
2022/02/20 12:07:31;;;;;;;41.17;14.73;;;10.80;73.30;;;;;;4991068;28;20050;-78
2022/02/20 12:10:24;;;;;;;6.65;3.17;;;11.00;73.80;;;;;;4996247;28;20042;-78
2022/02/20 12:13:12;;;;;;;6.88;4.13;;;11.00;72.20;;;;;;5005216;28;20050;-77
2022/02/20 12:15:43;;;;;;;3.13;1.30;;;10.90;72.00;;;;;;4991354;28;20060;-77
2022/02/20 12:18:10;;;;;;;5.43;4.10;;;10.80;72.30;;;;;;4990533;28;20489;-77
2022/02/20 12:20:55;;;;;;;6.60;4.60;;;10.70;72.50;;;;;;4972401;28;20127;-76
2022/02/20 12:23:29;;;;;;;1.77;0.80;;;10.70;72.40;;;;;;4991864;28;20042;-76
2022/02/20 12:26:04;;;;;;;3.38;1.48;;;10.80;71.20;;;;;;4984238;28;20050;-76
2022/02/20 12:28:32;;;;;;;2.17;0.70;;;10.70;71.60;;;;;;4979009;28;20070;-75
2022/02/20 12:31:15;;;;;;;1.27;0.20;;;10.60;72.60;;;;;;4993878;28;21504;-75
2022/02/20 12:33:47;;;;;;;2.83;0.60;;;10.50;71.60;;;;;;4995645;28;20493;-75
2022/02/20 12:36:28;;;;;;;1.38;0.30;;;10.50;71.60;;;;;;4994839;28;20189;-76
2022/02/20 12:38:57;;;;;;;2.17;0.65;;;10.50;71.90;;;;;;4972651;28;20521;-76
2022/02/20 12:41:26;;;;;;;3.38;1.20;;;;;;;;;;4994249;28;20057;-72
2022/02/20 12:43:55;;;;;;;2.97;1.10;;;;;;;;;;4973245;28;20042;-75
2022/02/20 12:46:23;;;;;;;1.02;0.32;;;;;;;;;;4993189;28;20050;-72
2022/02/20 12:48:51;;;;;;;3.53;0.80;;;;;;;;;;4971392;28;20060;-72
2022/02/20 12:51:19;;;;;;;4.05;0.68;;;;;;;;;;5008511;28;20049;-72
2022/02/20 12:53:46;;;;;;;5.15;2.13;;;;;;;;;;5004666;28;20043;-72
2022/02/20 12:56:29;;;;;;;1.80;0.52;;;;;;;;;;4987177;28;20054;-72
2022/02/20 12:58:57;;;;;;;2.72;0.40;;;;;;;;;;4984544;28;20057;-71
2022/02/20 13:01:25;;;;;;;2.00;0.70;;;;;;;;;;4988906;28;20046;-72
2022/02/20 13:03:53;;;;;;;3.55;1.27;;;;;;;;;;4989190;28;20057;-71
2022/02/20 13:06:33;;;;;;;2.17;0.80;;;;;;;;;;4988319;28;20073;-71
2022/02/20 13:09:00;;;;;;;5.18;1.77;;;;;;;;;;4994411;28;20045;-73
2022/02/20 13:11:29;;;;;;;2.90;0.40;;;;;;;;;;4993612;28;20048;-71
2022/02/20 13:14:10;;;;;;;2.13;0.60;;;;;;;;;;4988624;28;20108;-72
2022/02/20 13:16:48;;;;;;;4.07;0.50;;;;;;;;;;4988962;28;23997;-73
2022/02/20 13:19:15;;;;;;;1.85;0.80;;;;;;;;;;5005285;28;20081;-72
2022/02/20 13:21:44;;;;;;;1.80;0.65;;;;;;;;;;4984456;28;20057;-73